Flight Track Log - Related Links

Times and Time Zones

All times are in EST time to prevent confusion due to time zone crossing. See the ACA7034 flight status page for this flight to view local times or setup timezone preferences in your user account.


Time Position Orientation Groundspeed Altitude Reporting Facility
EST Latitude Longitude Course Direction KTS MPH feet Rate Location/Type
Fri 02:16:12 PM 38.9667 -77.5000 345° North 160 184 2,600  Level Potomac TRACON
Fri 02:17:12 PM 39.0167 -77.5167 345° North 205 236 6,100 3,150 Climbing Potomac TRACON
Fri 02:18:12 PM 39.0833 -77.5000 11° North 250 288 8,900 1,500 Climbing Potomac TRACON
Fri 02:19:12 PM 39.1333 -77.4167 52° Northeast 276 318 9,100 551 Climbing Potomac TRACON
Fri 02:21:39 PM 39.2317 -77.2261 56° Northeast 278 320 10,800 1,217 Climbing Washington Center
Fri 02:22:39 PM 39.2828 -77.1333 55° Northeast 294 338 13,300 2,100 Climbing Washington Center
Fri 02:23:39 PM 39.3300 -77.0269 60° Northeast 320 368 15,000 843 Climbing Washington Center
Fri 02:24:40 PM 39.2942 -76.8817 108° East 354 407 15,000 -50 Level Washington Center
Fri 02:25:38 PM 39.2436 -76.7278 113° Southeast 397 457 14,900  Descending Washington Center
Fri 02:26:38 PM 39.2011 -76.5639 108° East 457 526 15,000 100 Climbing Washington Center
Fri 02:27:38 PM 39.2211 -76.4033 81° East 439 505 15,100 545 Climbing Washington Center
Fri 02:28:39 PM 39.2408 -76.2400 81° East 444 511 16,100 893 Climbing Washington Center
Fri 02:29:39 PM 39.2667 -76.0875 78° East 462 532 16,900 446 Climbing Washington Center
Fri 02:30:40 PM 39.2881 -75.9214 81° East 467 537 17,000 50 Climbing Washington Center
Fri 02:31:40 PM 39.3092 -75.7525 81° East 467 537 17,000  Level Washington Center
Fri 02:32:38 PM 39.3303 -75.5997 80° East 472 543 17,000  Level Washington Center
Fri 02:33:39 PM 39.3550 -75.3983 81° East 472 543 17,000  Level Washington Center
Fri 02:34:39 PM 39.3733 -75.2344 82° East 467 537 17,000  Level Washington Center
Fri 02:35:40 PM 39.3956 -75.0625 80° East 467 537 17,000 -35 Level Washington Center
Fri 02:37:31 PM 39.4350 -74.7678 80° East 469 540 16,900 -35 Descending New York Center
Fri 02:38:31 PM 39.4525 -74.6156 81° East 452 520 16,900  Level New York Center
Fri 02:39:31 PM 39.5025 -74.4919 62° Northeast 395 455 16,900  Level New York Center
Fri 02:40:31 PM 39.5708 -74.3689 54° Northeast 380 437 16,900  Level New York Center
Fri 02:41:31 PM 39.6464 -74.2839 41° Northeast 369 425 16,900 -250 Level New York Center
Fri 02:42:31 PM 39.7200 -74.1983 42° Northeast 353 406 16,400 -700 Descending New York Center
Fri 02:43:31 PM 39.7867 -74.1233 41° Northeast 348 400 15,500 -950 Descending New York Center
Fri 02:44:31 PM 39.8600 -74.0403 41° Northeast 323 372 14,500 -1,350 Descending New York Center
Fri 02:45:31 PM 39.9222 -73.9756 39° Northeast 302 348 12,800 -1,700 Descending New York Center
Fri 02:46:31 PM 39.9825 -73.9053 42° Northeast 290 334 11,100 -950 Descending New York Center
Fri 02:47:31 PM 40.0342 -73.8397 44° Northeast 285 328 10,900 -950 Descending New York Center
Fri 02:48:31 PM 40.0947 -73.7583 46° Northeast 285 328 9,200 -1,800 Descending New York Center
Fri 02:49:31 PM 40.1278 -73.6811 61° Northeast 274 315 7,300 -2,250 Descending New York Center
Fri 02:50:31 PM 40.1594 -73.5847 67° East 268 308 4,700 -2,050 Descending New York Center
Fri 02:51:31 PM 40.2083 -73.5458 31° Northeast 229 264 3,200 -850 Descending New York Center
Fri 02:52:31 PM 40.2678 -73.4911 35° Northeast 229 264 3,000 -550 Descending New York Center
Fri 02:53:31 PM 40.3108 -73.4356 45° Northeast 229 264 2,100 -500 Descending New York Center
Fri 02:54:31 PM 40.3703 -73.3836 34° Northeast 234 269 2,000 -50 Descending New York Center
Fri 02:55:31 PM 40.4247 -73.3692 11° North 219 252 2,000  Level New York Center
Fri 02:56:31 PM 40.4853 -73.3689 360° North 203 234 2,000  Level New York Center
Fri 02:57:31 PM 40.5311 -73.3678 North 195 224 2,000 -50 Level New York Center
Fri 02:58:31 PM 40.5875 -73.3644 North 189 217 1,900 -300 Descending New York Center
Fri 02:59:31 PM 40.6294 -73.3497 15° North 177 204 1,400 -250 Descending New York Center
Fri 03:00:31 PM 40.6772 -73.3489 North 161 185 1,400 -366 Level New York Center
Fri 03:01:42 PM 40.7000 -73.3833 311° West 106 122 600 -676 Descending New York TRACON
Fri 03:03:00 PM 40.7167 -73.4000 355° North  Level FlightAware Approximate

Login

Don't have an account? Register now (free) for customized features, flight alerts, and more!